Time;durP1;ratioP1;P1;durP2;ratioP2;P2;SDS_P1;SDS_P2;PMS_P1;PMS_P2;Temp;Humidity;BMP_temperature;BMP_pressure;BME280_temperature;BME280_humidity;BME280_pressure;Samples;Min_cycle;Max_cycle;Signal;HPM_P1;HPM_P2
2023/10/31 00:01:25;;;;;;;;;;;;;;;9.16;100.00;99543.47;5016727;28;1165;-77
2023/10/31 00:03:50;;;;;;;;;;;;;;;9.12;100.00;99542.97;5021076;28;1034;-77
2023/10/31 00:06:16;;;;;;;;;;;;;;;9.25;100.00;99542.59;5021974;28;1210;-77
2023/10/31 00:08:41;;;;;;;;;;;;;;;9.09;100.00;99539.84;5024342;28;1403;-77
2023/10/31 00:11:06;;;;;;;;;;;;;;;9.09;100.00;99547.59;5018291;28;1206;-75
2023/10/31 00:13:31;;;;;;;;;;;;;;;9.02;100.00;99558.53;5022469;28;1269;-76
2023/10/31 00:15:56;;;;;;;;;;;;;;;9.01;100.00;99556.09;5023352;28;1965;-77
2023/10/31 00:18:22;;;;;;;;;;;;;;;8.98;100.00;99562.38;5026873;28;1555;-76
2023/10/31 00:20:47;;;;;;;;;;;;;;;8.99;100.00;99573.53;5019508;28;1253;-77
2023/10/31 00:23:12;;;;;;;;;;;;;;;9.00;100.00;99565.63;5022326;28;1195;-76
2023/10/31 00:25:37;;;;;;;;;;;;;;;8.99;100.00;99574.34;5015721;28;1122;-75
2023/10/31 00:28:03;;;;;;;;;;;;;;;9.01;100.00;99577.59;5020538;28;1363;-77
2023/10/31 00:30:28;;;;;;;;;;;;;;;9.02;100.00;99584.41;5022204;28;1325;-76
2023/10/31 00:32:53;;;;;;;;;;;;;;;9.03;100.00;99580.84;5011833;28;1301;-77
2023/10/31 00:35:18;;;;;;;;;;;;;;;9.04;100.00;99579.88;5024279;28;1898;-75
2023/10/31 00:37:43;;;;;;;;;;;;;;;9.06;100.00;99584.94;5020118;28;1195;-76
2023/10/31 00:40:12;;;;;;;;;;;;;;;9.09;100.00;99588.97;5025930;28;1219;-76
2023/10/31 00:42:38;;;;;;;;;;;;;;;9.10;100.00;99575.09;5026717;28;1201;-76
2023/10/31 00:45:03;;;;;;;;;;;;;;;9.12;100.00;99599.03;5025174;28;1185;-77
2023/10/31 00:47:28;;;;;;;;;;;;;;;9.13;100.00;99601.50;5027022;28;1116;-77
2023/10/31 00:49:53;;;;;;;;;;;;;;;9.14;100.00;99604.88;5025444;28;1123;-75
2023/10/31 00:52:19;;;;;;;;;;;;;;;9.15;100.00;99603.91;5028677;28;1094;-76
2023/10/31 00:54:44;;;;;;;;;;;;;;;9.17;100.00;99602.00;5012494;28;1348;-77
2023/10/31 00:57:09;;;;;;;;;;;;;;;9.15;100.00;99609.09;5023086;28;1977;-76
2023/10/31 00:59:34;;;;;;;;;;;;;;;9.16;100.00;99610.72;5023643;28;1239;-76
2023/10/31 01:02:00;;;;;;;;;;;;;;;9.17;100.00;99612.34;5024424;28;1144;-76
2023/10/31 01:04:25;;;;;;;;;;;;;;;9.17;100.00;99607.16;5025003;28;1153;-75
2023/10/31 01:06:51;;;;;;;;;;;;;;;9.18;100.00;99614.00;5026337;28;1031;-75
2023/10/31 01:09:16;;;;;;;;;;;;;;;9.18;100.00;99619.16;5025460;28;1304;-75
2023/10/31 01:11:41;;;;;;;;;;;;;;;9.16;100.00;99618.47;5027021;28;1790;-75
2023/10/31 01:14:06;;;;;;;;;;;;;;;9.16;100.00;99631.41;5023085;28;1213;-75
2023/10/31 01:16:31;;;;;;;;;;;;;;;9.15;100.00;99629.78;5023277;28;1955;-75
2023/10/31 01:18:57;;;;;;;;;;;;;;;9.16;100.00;99631.41;5024916;28;1147;-75
2023/10/31 01:21:22;;;;;;;;;;;;;;;9.16;100.00;99641.75;5023042;28;1257;-75
2023/10/31 01:23:47;;;;;;;;;;;;;;;9.16;100.00;99649.53;5004373;28;1321;-75
2023/10/31 01:26:12;;;;;;;;;;;;;;;9.14;100.00;99638.50;5021810;28;1242;-76
2023/10/31 01:28:38;;;;;;;;;;;;;;;9.16;100.00;99641.75;5020785;28;1030;-76
2023/10/31 01:31:03;;;;;;;;;;;;;;;9.16;100.00;99636.59;5016477;28;1185;-75
2023/10/31 01:33:28;;;;;;;;;;;;;;;9.16;100.00;99629.63;5018910;28;1197;-75
2023/10/31 01:35:53;;;;;;;;;;;;;;;9.18;100.00;99639.84;5018989;28;2330;-75
2023/10/31 01:38:18;;;;;;;;;;;;;;;9.17;100.00;99643.38;5011847;28;1179;-76
2023/10/31 01:40:44;;;;;;;;;;;;;;;9.19;100.00;99644.06;5020469;28;1309;-76
2023/10/31 01:43:09;;;;;;;;;;;;;;;9.20;100.00;99648.28;5026025;28;1213;-76
2023/10/31 01:45:34;;;;;;;;;;;;;;;9.20;100.00;99651.69;5026081;28;1509;-76
2023/10/31 01:47:59;;;;;;;;;;;;;;;9.21;100.00;99652.50;5022326;28;1224;-76
2023/10/31 01:50:25;;;;;;;;;;;;;;;9.17;100.00;99648.56;5023396;28;1092;-75
2023/10/31 01:52:51;;;;;;;;;;;;;;;9.19;100.00;99651.84;5007976;28;1240;-76
2023/10/31 01:55:17;;;;;;;;;;;;;;;9.20;100.00;99651.69;5026818;28;1942;-76
2023/10/31 01:57:44;;;;;;;;;;;;;;;9.19;100.00;99651.84;5023947;28;1184;-76
2023/10/31 02:00:10;;;;;;;;;;;;;;;9.20;100.00;99654.25;5013771;28;1358;-75
2023/10/31 02:02:36;;;;;;;;;;;;;;;9.21;100.00;99650.72;5010735;28;1327;-77
2023/10/31 02:05:01;;;;;;;;;;;;;;;9.21;100.00;99655.06;5021553;28;1297;-74
2023/10/31 02:07:27;;;;;;;;;;;;;;;9.22;100.00;99654.13;5024969;28;944;-75
2023/10/31 02:09:52;;;;;;;;;;;;;;;9.23;100.00;99663.50;5021104;28;1416;-76
2023/10/31 02:12:32;;;;;;;;;;;;;;;9.22;100.00;99659.28;5023101;28;1105;-76
2023/10/31 02:14:58;;;;;;;;;;;;;;;9.22;100.00;99661.88;5018550;28;910;-76
2023/10/31 02:17:23;;;;;;;;;;;;;;;9.22;100.00;99661.88;5023751;28;1918;-75
2023/10/31 02:19:48;;;;;;;;;;;;;;;9.23;100.00;99658.31;5004345;28;1248;-76
2023/10/31 02:22:13;;;;;;;;;;;;;;;9.23;100.00;99653.16;5021439;28;1146;-76
2023/10/31 02:24:38;;;;;;;;;;;;;;;9.23;100.00;99653.16;5019505;28;1174;-77
2023/10/31 02:27:03;;;;;;;;;;;;;;;9.23;100.00;99653.16;5023324;28;1062;-76
2023/10/31 02:29:29;;;;;;;;;;;;;;;9.23;100.00;99650.56;5016587;28;1259;-77
2023/10/31 02:31:55;;;;;;;;;;;;;;;9.24;100.00;99647.03;5006808;28;1219;-76
2023/10/31 02:34:20;;;;;;;;;;;;;;;9.23;100.00;99648.81;5010473;28;1255;-76
2023/10/31 02:36:46;;;;;;;;;;;;;;;9.22;100.00;99646.34;5006546;28;1984;-76
2023/10/31 02:39:11;;;;;;;;;;;;;;;9.23;100.00;99655.75;5025909;28;1168;-76
2023/10/31 02:41:37;;;;;;;;;;;;;;;9.22;100.00;99656.69;5018668;28;1281;-76
2023/10/31 02:44:02;;;;;;;;;;;;;;;9.23;100.00;99658.31;5023264;28;1194;-76
2023/10/31 02:46:27;;;;;;;;;;;;;;;9.23;100.00;99658.31;5019694;28;1362;-75
2023/10/31 02:48:52;;;;;;;;;;;;;;;9.22;100.00;99657.50;5016774;28;1151;-76
2023/10/31 02:51:17;;;;;;;;;;;;;;;9.23;100.00;99659.16;5021627;28;1341;-76
2023/10/31 02:53:43;;;;;;;;;;;;;;;9.23;100.00;99663.50;5024395;28;1268;-76
2023/10/31 02:56:08;;;;;;;;;;;;;;;9.25;100.00;99671.94;5023225;28;1977;-76
2023/10/31 02:58:33;;;;;;;;;;;;;;;9.24;100.00;99659.97;5024919;28;1129;-76
2023/10/31 03:00:58;;;;;;;;;;;;;;;9.26;100.00;99674.38;5019702;28;1321;-76
2023/10/31 03:03:23;;;;;;;;;;;;;;;9.29;100.00;99673.28;5022765;28;1185;-77
2023/10/31 03:05:49;;;;;;;;;;;;;;;9.29;100.00;99678.47;5020592;28;1398;-77
2023/10/31 03:08:14;;;;;;;;;;;;;;;9.30;100.00;99682.69;5020275;28;1199;-75
2023/10/31 03:10:41;;;;;;;;;;;;;;;9.32;100.00;99685.94;5028257;28;1224;-76
2023/10/31 03:13:06;;;;;;;;;;;;;;;9.33;100.00;99679.78;5000645;28;1624;-77
2023/10/31 03:15:31;;;;;;;;;;;;;;;9.32;100.00;99678.16;5019615;28;1895;-75
2023/10/31 03:17:56;;;;;;;;;;;;;;;9.31;100.00;99684.31;5019272;28;1100;-76
2023/10/31 03:20:22;;;;;;;;;;;;;;;9.31;100.00;99687.69;5019956;28;967;-76
2023/10/31 03:22:47;;;;;;;;;;;;;;;9.31;100.00;99681.72;5017897;28;1125;-75
2023/10/31 03:25:12;;;;;;;;;;;;;;;9.31;100.00;99686.88;5015365;28;1140;-77
2023/10/31 03:27:37;;;;;;;;;;;;;;;9.31;100.00;99692.06;5000769;28;1188;-75
2023/10/31 03:30:03;;;;;;;;;;;;;;;9.29;100.00;99688.81;5001861;28;1046;-77
2023/10/31 03:32:28;;;;;;;;;;;;;;;9.31;100.00;99707.59;5017236;28;1114;-74
2023/10/31 03:34:53;;;;;;;;;;;;;;;9.31;100.00;99702.41;5020062;28;1309;-76
2023/10/31 03:37:19;;;;;;;;;;;;;;;9.31;100.00;99708.41;5004865;28;1989;-75
2023/10/31 03:39:44;;;;;;;;;;;;;;;9.31;100.00;99712.75;5012376;28;1313;-77
2023/10/31 03:42:09;;;;;;;;;;;;;;;9.31;100.00;99720.53;5020737;28;1011;-78
2023/10/31 03:44:34;;;;;;;;;;;;;;;9.31;100.00;99723.94;5018914;28;1083;-75
2023/10/31 03:46:59;;;;;;;;;;;;;;;9.32;100.00;99735.09;5022846;28;1348;-75
2023/10/31 03:49:24;;;;;;;;;;;;;;;9.33;100.00;99736.72;5023153;28;1297;-75
2023/10/31 03:51:50;;;;;;;;;;;;;;;9.33;100.00;99744.47;5025452;28;1512;-75
2023/10/31 03:54:15;;;;;;;;;;;;;;;9.32;100.00;99745.44;5021089;28;1315;-75
2023/10/31 03:56:41;;;;;;;;;;;;;;;9.34;100.00;99746.09;5014119;28;1985;-77
2023/10/31 03:59:06;;;;;;;;;;;;;;;9.33;100.00;99752.25;5021947;28;1025;-77
2023/10/31 04:01:31;;;;;;;;;;;;;;;9.34;100.00;99753.88;5002195;28;1599;-76
2023/10/31 04:03:56;;;;;;;;;;;;;;;9.32;100.00;99760.97;5021821;28;1258;-76
2023/10/31 04:06:22;;;;;;;;;;;;;;;9.35;100.00;99765.03;5026587;28;1146;-76
2023/10/31 04:08:47;;;;;;;;;;;;;;;9.34;100.00;99764.22;5019645;28;1515;-76
2023/10/31 04:11:12;;;;;;;;;;;;;;;9.34;100.00;99759.03;5021739;28;1088;-76
2023/10/31 04:13:37;;;;;;;;;;;;;;;9.32;100.00;99756.59;5015711;28;1289;-77
2023/10/31 04:16:03;;;;;;;;;;;;;;;9.32;100.00;99763.56;5019791;28;1950;-76
2023/10/31 04:18:29;;;;;;;;;;;;;;;9.35;100.00;99768.47;5023123;28;1327;-76
2023/10/31 04:20:54;;;;;;;;;;;;;;;9.32;100.00;99782.47;5023449;28;1258;-76
2023/10/31 04:23:19;;;;;;;;;;;;;;;9.27;100.00;99779.50;5022843;28;1170;-75
2023/10/31 04:25:44;;;;;;;;;;;;;;;9.28;100.00;99775.13;5025579;28;1229;-76
2023/10/31 04:28:09;;;;;;;;;;;;;;;9.27;100.00;99783.84;5025416;28;1302;-76
2023/10/31 04:30:35;;;;;;;;;;;;;;;9.24;100.00;99779.00;5014662;28;1276;-75
2023/10/31 04:33:00;;;;;;;;;;;;;;;9.23;100.00;99782.50;5021741;28;1281;-76
2023/10/31 04:35:25;;;;;;;;;;;;;;;9.21;100.00;99785.25;5027819;28;1886;-75
2023/10/31 04:37:50;;;;;;;;;;;;;;;9.22;100.00;99786.06;5025265;28;1341;-77
2023/10/31 04:40:16;;;;;;;;;;;;;;;9.22;100.00;99786.06;5028232;28;1517;-78
2023/10/31 04:42:41;;;;;;;;;;;;;;;9.21;100.00;99794.78;5026473;28;1254;-75
2023/10/31 04:45:07;;;;;;;;;;;;;;;9.18;100.00;99793.31;5027279;28;1383;-76
2023/10/31 04:47:32;;;;;;;;;;;;;;;9.19;100.00;99794.13;5018158;28;1330;-76
2023/10/31 04:49:57;;;;;;;;;;;;;;;9.16;100.00;99802.97;5022721;28;1516;-75
2023/10/31 04:52:22;;;;;;;;;;;;;;;9.16;100.00;99802.16;5026483;28;1187;-75
2023/10/31 04:54:48;;;;;;;;;;;;;;;9.14;100.00;99809.25;5010230;28;1450;-76
2023/10/31 04:57:13;;;;;;;;;;;;;;;9.14;100.00;99809.25;5017506;28;1961;-77
2023/10/31 04:59:38;;;;;;;;;;;;;;;9.14;100.00;99819.59;5025044;28;1218;-77
2023/10/31 05:02:03;;;;;;;;;;;;;;;9.13;100.00;99817.97;5007798;28;1642;-76
2023/10/31 05:04:29;;;;;;;;;;;;;;;9.21;100.00;99818.06;5018102;28;1312;-76
2023/10/31 05:06:54;;;;;;;;;;;;;;;9.08;100.00;99825.31;5021904;28;1199;-76
2023/10/31 05:09:20;;;;;;;;;;;;;;;9.04;100.00;99825.59;5015830;28;1177;-76
2023/10/31 05:11:45;;;;;;;;;;;;;;;9.04;100.00;99825.59;5017012;28;1301;-76
2023/10/31 05:14:10;;;;;;;;;;;;;;;9.03;100.00;99829.13;5021919;28;1240;-76
2023/10/31 05:16:42;;;;;;;;;;;;;;;9.04;100.00;99835.94;5016335;28;1902;-75
2023/10/31 05:19:07;;;;;;;;;;;;;;;9.04;100.00;99830.75;5023055;28;1155;-76
2023/10/31 05:21:33;;;;;;;;;;;;;;;9.05;100.00;99824.63;5025057;28;1137;-76
2023/10/31 05:23:58;;;;;;;;;;;;;;;9.07;100.00;99834.84;5018513;28;1270;-78
2023/10/31 05:26:23;;;;;;;;;;;;;;;9.07;100.00;99828.88;5024427;28;1175;-77
2023/10/31 05:28:48;;;;;;;;;;;;;;;9.09;100.00;99832.13;5026127;28;1181;-77
2023/10/31 05:31:15;;;;;;;;;;;;;;;9.10;100.00;99841.50;5018319;28;1225;-77
2023/10/31 05:33:40;;;;;;;;;;;;;;;9.12;100.00;99847.34;5024633;28;1194;-76
2023/10/31 05:36:05;;;;;;;;;;;;;;;9.11;100.00;99849.13;5021610;28;1965;-76
2023/10/31 05:38:31;;;;;;;;;;;;;;;9.11;100.00;99851.72;5021059;28;1567;-76
2023/10/31 05:40:56;;;;;;;;;;;;;;;9.12;100.00;99857.69;5023840;28;1249;-75
2023/10/31 05:43:21;;;;;;;;;;;;;;;9.13;100.00;99859.34;5026314;28;1154;-76
2023/10/31 05:45:46;;;;;;;;;;;;;;;9.13;100.00;99862.75;5003695;28;1299;-76
2023/10/31 05:48:14;;;;;;;;;;;;;;;9.15;100.00;99867.78;5025869;28;1017;-76
2023/10/31 05:50:39;;;;;;;;;;;;;;;9.14;100.00;99866.16;5026833;28;1299;-76
2023/10/31 05:53:04;;;;;;;;;;;;;;;9.14;100.00;99868.75;5025832;28;1198;-76
2023/10/31 05:55:30;;;;;;;;;;;;;;;9.15;100.00;99872.94;5022667;28;1969;-76
2023/10/31 05:57:55;;;;;;;;;;;;;;;9.14;100.00;99868.75;5023967;28;1231;-77
2023/10/31 06:00:20;;;;;;;;;;;;;;;9.11;100.00;99871.59;5020125;28;1186;-76
2023/10/31 06:02:45;;;;;;;;;;;;;;;9.11;100.00;99877.56;5021898;28;1241;-76
2023/10/31 06:05:10;;;;;;;;;;;;;;;9.11;100.00;99887.13;5020331;28;1121;-75
2023/10/31 06:07:36;;;;;;;;;;;;;;;9.12;100.00;99888.75;5019397;28;1021;-76
2023/10/31 06:10:01;;;;;;;;;;;;;;;9.11;100.00;99898.28;5020620;28;1165;-76
2023/10/31 06:12:27;;;;;;;;;;;;;;;9.13;100.00;99895.56;5021768;28;1428;-76
2023/10/31 06:14:52;;;;;;;;;;;;;;;9.13;100.00;99898.16;5022404;28;1229;-75
2023/10/31 06:17:17;;;;;;;;;;;;;;;9.13;100.00;99901.56;5019666;28;1968;-75
2023/10/31 06:19:45;;;;;;;;;;;;;;;9.14;100.00;99912.72;5017708;28;1574;-76
2023/10/31 06:22:10;;;;;;;;;;;;;;;9.14;100.00;99915.31;5022082;28;1195;-77
2023/10/31 06:24:35;;;;;;;;;;;;;;;9.14;100.00;99928.25;5025915;28;1144;-76
2023/10/31 06:27:00;;;;;;;;;;;;;;;9.15;100.00;99916.94;5017848;28;1236;-76
2023/10/31 06:29:26;;;;;;;;;;;;;;;9.14;100.00;99923.06;5025842;28;1257;-76
2023/10/31 06:31:51;;;;;;;;;;;;;;;9.14;100.00;99928.25;5023566;28;1421;-77
2023/10/31 06:34:16;;;;;;;;;;;;;;;9.14;100.00;99928.25;5024071;28;1433;-77
2023/10/31 06:36:41;;;;;;;;;;;;;;;9.13;100.00;99926.63;5021296;28;1975;-76
2023/10/31 06:39:07;;;;;;;;;;;;;;;9.13;100.00;99931.78;5022970;28;1372;-76
2023/10/31 06:41:32;;;;;;;;;;;;;;;9.13;100.00;99929.19;5023738;28;1440;-76
2023/10/31 06:43:58;;;;;;;;;;;;;;;9.12;100.00;99927.53;5024337;28;1194;-76
2023/10/31 06:46:23;;;;;;;;;;;;;;;9.13;100.00;99932.59;5022095;28;1285;-76
2023/10/31 06:48:48;;;;;;;;;;;;;;;9.13;100.00;99936.97;5021757;28;1214;-76
2023/10/31 06:51:13;;;;;;;;;;;;;;;9.13;100.00;99934.38;5008421;28;1211;-76
2023/10/31 06:53:38;;;;;;;;;;;;;;;9.13;100.00;99936.97;5023057;28;1178;-76
2023/10/31 06:56:04;;;;;;;;;;;;;;;9.12;100.00;99930.97;5019166;28;1967;-76
2023/10/31 06:58:29;;;;;;;;;;;;;;;9.10;100.00;99938.03;5018363;28;1150;-76
2023/10/31 07:00:55;;;;;;;;;;;;;;;9.11;100.00;99933.66;5005576;28;1267;-76
2023/10/31 07:03:20;;;;;;;;;;;;;;;9.11;100.00;99934.50;5019607;28;1170;-77
2023/10/31 07:05:45;;;;;;;;;;;;;;;9.10;100.00;99939.81;5020289;28;1139;-76
2023/10/31 07:08:10;;;;;;;;;;;;;;;9.11;100.00;99938.84;5009108;28;1232;-76
2023/10/31 07:10:36;;;;;;;;;;;;;;;9.12;100.00;99945.66;5020706;28;1213;-76
2023/10/31 07:13:01;;;;;;;;;;;;;;;9.11;100.00;99944.03;5021645;28;1520;-76
2023/10/31 07:15:26;;;;;;;;;;;;;;;9.10;100.00;99952.75;5017494;28;1890;-76
2023/10/31 07:17:51;;;;;;;;;;;;;;;9.11;100.00;99949.19;5023517;28;1235;-76
2023/10/31 07:20:16;;;;;;;;;;;;;;;9.11;100.00;99949.19;5023562;28;1086;-76
2023/10/31 07:22:42;;;;;;;;;;;;;;;9.11;100.00;99949.19;5010701;28;1184;-76
2023/10/31 07:25:07;;;;;;;;;;;;;;;9.12;100.00;99956.00;5024153;28;918;-76
2023/10/31 07:27:32;;;;;;;;;;;;;;;9.12;100.00;99956.00;5014509;28;1137;-76
2023/10/31 07:29:58;;;;;;;;;;;;;;;9.12;100.00;99971.50;5023282;28;1205;-76
2023/10/31 07:32:23;;;;;;;;;;;;;;;9.12;100.00;99968.94;5023510;28;1238;-76
2023/10/31 07:34:48;;;;;;;;;;;;;;;9.12;100.00;99976.69;5019693;28;1216;-76
2023/10/31 07:37:13;;;;;;;;;;;;;;;9.12;100.00;99971.50;5025644;28;1902;-76
2023/10/31 07:39:39;;;;;;;;;;;;;;;9.09;100.00;99966.63;5015427;28;1300;-76
2023/10/31 07:42:04;;;;;;;;;;;;;;;9.10;100.00;99968.25;5030151;28;1338;-76
2023/10/31 07:44:30;;;;;;;;;;;;;;;9.09;100.00;99971.81;5018023;28;1214;-76
2023/10/31 07:46:55;;;;;;;;;;;;;;;9.09;100.00;99976.97;5030094;28;1037;-76
2023/10/31 07:49:20;;;;;;;;;;;;;;;9.12;100.00;99971.50;5017295;28;1387;-76
2023/10/31 07:51:47;;;;;;;;;;;;;;;9.13;100.00;99975.75;5018427;28;1208;-76
2023/10/31 07:54:13;;;;;;;;;;;;;;;9.15;100.00;99966.09;5026288;28;1164;-76
2023/10/31 07:56:39;;;;;;;;;;;;;;;9.17;100.00;99974.50;5010969;28;1922;-76
2023/10/31 07:59:04;;;;;;;;;;;;;;;9.19;100.00;99977.81;5023220;28;1146;-76
2023/10/31 08:01:30;;;;;;;;;;;;;;;9.18;100.00;99981.34;5010501;28;1194;-76
2023/10/31 08:03:55;;;;;;;;;;;;;;;9.19;100.00;99983.78;5026199;28;1181;-76
2023/10/31 08:06:20;;;;;;;;;;;;;;;9.20;100.00;99984.59;5028483;28;1190;-76
2023/10/31 08:08:45;;;;;;;;;;;;;;;9.22;100.00;99982.69;5024910;28;1188;-76
2023/10/31 08:11:11;;;;;;;;;;;;;;;9.25;100.00;99987.59;5032777;28;1186;-76
2023/10/31 08:13:37;;;;;;;;;;;;;;;9.26;100.00;99994.41;5029668;28;1232;-76
2023/10/31 08:16:02;;;;;;;;;;;;;;;9.28;100.00;99989.91;5028098;28;1973;-76
2023/10/31 08:18:27;;;;;;;;;;;;;;;9.32;100.00;99993.84;5019721;28;1493;-76
2023/10/31 08:20:52;;;;;;;;;;;;;;;9.34;100.00;99996.28;5030245;28;1320;-75
2023/10/31 08:23:17;;;;;;;;;;;;;;;9.34;100.00;99994.53;5026572;28;1345;-75
2023/10/31 08:25:43;;;;;;;;;;;;;;;9.37;100.00;99998.63;5012404;28;1382;-76
2023/10/31 08:28:08;;;;;;;;;;;;;;;9.39;100.00;99996.69;5027518;28;1550;-76
2023/10/31 08:30:33;;;;;;;;;;;;;;;9.42;100.00;100005.03;5030211;28;1136;-76
2023/10/31 08:32:58;;;;;;;;;;;;;;;9.46;100.00;100008.97;5029159;28;1273;-76
2023/10/31 08:35:24;;;;;;;;;;;;;;;9.49;100.00;100003.50;5024149;28;1890;-75
2023/10/31 08:37:49;;;;;;;;;;;;;;;9.55;100.00;100005.53;5028585;28;1155;-75
2023/10/31 08:40:14;;;;;;;;;;;;;;;9.62;100.00;100004.97;5030463;28;1372;-75
2023/10/31 08:42:39;;;;;;;;;;;;;;;9.68;100.00;100009.59;5010631;28;1149;-76
2023/10/31 08:45:05;;;;;;;;;;;;;;;9.74;100.00;100020.22;5016743;28;1421;-76
2023/10/31 08:47:30;;;;;;;;;;;;;;;9.85;100.00;100019.25;5013820;28;1201;-75
2023/10/31 08:49:55;;;;;;;;;;;;;;;9.94;100.00;100022.78;5023464;28;1191;-75
2023/10/31 08:52:22;;;;;;;;;;;;;;;9.99;100.00;100018.81;5023963;28;1210;-75
2023/10/31 08:54:47;;;;;;;;;;;;;;;10.05;100.00;100023.44;5024287;28;1233;-75
2023/10/31 08:57:12;;;;;;;;;;;;;;;10.10;100.00;100028.19;5022954;28;1894;-75
2023/10/31 08:59:37;;;;;;;;;;;;;;;10.15;100.00;100036.34;5026313;28;1225;-75
2023/10/31 09:02:03;;;;;;;;;;;;;;;10.20;100.00;100030.72;5027679;28;1224;-75
2023/10/31 09:04:28;;;;;;;;;;;;;;;10.20;100.00;100039.31;5026169;28;1180;-75
2023/10/31 09:06:53;;;;;;;;;;;;;;;10.19;100.00;100047.25;5028082;28;1569;-75
2023/10/31 09:09:18;;;;;;;;;;;;;;;10.19;100.00;100049.81;5028072;28;1208;-75
2023/10/31 09:11:44;;;;;;;;;;;;;;;10.19;100.00;100055.00;5026950;28;1130;-75
2023/10/31 09:14:09;;;;;;;;;;;;;;;10.19;100.00;100060.19;5027350;28;1272;-74
2023/10/31 09:16:34;;;;;;;;;;;;;;;10.20;100.00;100062.63;5018208;28;2001;-76
2023/10/31 09:19:00;;;;;;;;;;;;;;;10.23;100.00;100058.97;5015085;28;1206;-75
2023/10/31 09:21:25;;;;;;;;;;;;;;;10.24;100.00;100063.22;5025351;28;1097;-75
2023/10/31 09:23:50;;;;;;;;;;;;;;;10.24;100.00;100064.03;5025632;28;1003;-75
2023/10/31 09:26:17;;;;;;;;;;;;;;;10.28;100.00;100059.38;5022109;28;1264;-75
2023/10/31 09:28:49;;;;;;;;;;;;;;;10.34;100.00;100061.41;5007782;28;1209;-75
2023/10/31 09:31:14;;;;;;;;;;;;;;;10.42;100.00;100061.50;5024709;28;1057;-75
2023/10/31 09:33:39;;;;;;;;;;;;;;;10.49;100.00;100065.16;5024935;28;1166;-75
2023/10/31 09:36:05;;;;;;;;;;;;;;;10.59;100.00;100073.72;5023762;28;1894;-75
2023/10/31 09:38:30;;;;;;;;;;;;;;;10.66;100.00;100075.72;5023008;28;1288;-75
2023/10/31 09:40:55;;;;;;;;;;;;;;;10.70;100.00;100079.66;5024273;28;1364;-75
2023/10/31 09:43:20;;;;;;;;;;;;;;;10.72;100.00;100088.13;5018580;28;1083;-75
2023/10/31 09:45:46;;;;;;;;;;;;;;;10.73;100.00;100084.59;5009665;28;1375;-75
2023/10/31 09:48:11;;;;;;;;;;;;;;;10.77;100.00;100096.28;5023550;28;1372;-75
2023/10/31 09:50:38;;;;;;;;;;;;;;;10.80;100.00;100094.22;5025057;28;1209;-75
2023/10/31 09:53:05;;;;;;;;;;;;;;;10.85;100.00;100093.81;5025920;28;1253;-75
2023/10/31 09:55:31;;;;;;;;;;;;;;;10.86;100.00;100103.22;5006872;28;1996;-74
2023/10/31 09:57:57;;;;;;;;;;;;;;;10.94;100.00;100102.47;5021108;28;1334;-75
2023/10/31 10:00:22;;;;;;;;;;;;;;;10.98;100.00;100109.84;5005194;28;1170;-75
2023/10/31 10:02:47;;;;;;;;;;;;;;;11.06;100.00;100128.06;5009091;28;1421;-75
2023/10/31 10:05:14;;;;;;;;;;;;;;;11.13;100.00;100113.56;5026394;28;1176;-75
2023/10/31 10:07:41;;;;;;;;;;;;;;;11.20;100.00;100123.38;5021065;28;1057;-75
2023/10/31 10:10:09;;;;;;;;;;;;;;;11.25;100.00;100129.75;5016695;28;1316;-75
2023/10/31 10:12:34;;;;;;;;;;;;;;;11.29;100.00;100133.66;5023745;28;1158;-75
2023/10/31 10:14:59;;;;;;;;;;;;;;;11.33;100.00;100139.41;5010441;28;1442;-75
2023/10/31 10:17:25;;;;;;;;;;;;;;;11.27;100.00;100145.19;5032132;28;1898;-75
2023/10/31 10:20:10;;;;;;;;;;;;;;;11.38;100.00;100140.59;5021172;28;1264;-74
2023/10/31 10:22:42;;;;;;;;;;;;;;;11.21;100.00;100150.97;5026870;28;1123;-75
2023/10/31 10:25:15;;;;;;;;;;;;;;;11.24;100.00;100151.50;5028564;28;1042;-75
2023/10/31 10:27:41;;;;;;;;;;;;;;;11.27;100.00;100150.38;5020276;28;990;-74
2023/10/31 10:30:07;;;;;;;;;;;;;;;11.30;100.00;100150.09;5025505;28;1244;-75
2023/10/31 10:32:33;;;;;;;;;;;;;;;11.36;100.00;100154.69;5023316;28;1176;-74
2023/10/31 10:34:58;;;;;;;;;;;;;;;11.38;100.00;100163.16;5020996;28;1129;-75
2023/10/31 10:37:25;;;;;;;;;;;;;;;11.37;100.00;100166.72;5021102;28;1898;-75
2023/10/31 10:39:53;;;;;;;;;;;;;;;11.43;100.00;100168.72;5023102;28;1088;-75
2023/10/31 10:42:20;;;;;;;;;;;;;;;11.44;100.00;100165.97;5022821;28;1328;-75
2023/10/31 10:44:48;;;;;;;;;;;;;;;11.41;100.00;100173.22;5022042;28;1252;-74
2023/10/31 10:47:13;;;;;;;;;;;;;;;11.36;100.00;100175.47;5024809;28;1159;-75
2023/10/31 10:49:40;;;;;;;;;;;;;;;11.36;100.00;100180.66;5016187;28;1503;-75
2023/10/31 10:52:13;;;;;;;;;;;;;;;11.33;100.00;100186.13;5014087;28;1384;-75
2023/10/31 10:54:52;;;;;;;;;;;;;;;11.28;100.00;100183.16;5024320;28;1092;-74
2023/10/31 10:57:32;;;;;;;;;;;;;;;11.27;100.00;100186.72;5015186;28;2009;-75
2023/10/31 11:00:01;;;;;;;;;;;;;;;11.25;100.00;100188.66;5027710;28;1070;-75
2023/10/31 11:02:28;;;;;;;;;;;;;;;11.28;100.00;100188.34;5029381;28;1538;-75
2023/10/31 11:04:54;;;;;;;;;;;;;;;11.28;100.00;100183.97;5024376;28;1173;-75
2023/10/31 11:07:20;;;;;;;;;;;;;;;11.27;100.00;100191.91;5024949;28;1384;-75
2023/10/31 11:09:46;;;;;;;;;;;;;;;11.23;100.00;100190.56;5023358;28;1014;-75
2023/10/31 11:12:12;;;;;;;;;;;;;;;11.31;100.00;100188.06;5022786;28;1099;-75
2023/10/31 11:14:38;;;;;;;;;;;;;;;11.29;100.00;100189.97;5024912;28;1107;-76
2023/10/31 11:17:09;;;;;;;;;;;;;;;11.29;100.00;100195.16;5021536;28;1960;-75
2023/10/31 11:19:35;;;;;;;;;;;;;;;11.26;100.00;100195.47;5021525;28;1132;-75
2023/10/31 11:22:01;;;;;;;;;;;;;;;11.24;100.00;100197.38;5021026;28;1017;-75
2023/10/31 11:24:28;;;;;;;;;;;;;;;11.20;100.00;100206.44;5021430;28;1082;-75
2023/10/31 11:26:57;;;;;;;;;;;;;;;11.19;100.00;100204.81;5020602;28;1065;-75
2023/10/31 11:29:22;;;;;;;;;;;;;;;11.20;100.00;100203.84;5017771;28;959;-75
2023/10/31 11:31:48;;;;;;;;;;;;;;;11.21;100.00;100202.88;5021584;28;1426;-74
2023/10/31 11:34:15;;;;;;;;;;;;;;;11.24;100.00;100210.34;5025658;28;1493;-74
2023/10/31 11:36:41;;;;;;;;;;;;;;;11.22;100.00;100214.88;5027830;28;1906;-75
2023/10/31 11:39:13;;;;;;;;;;;;;;;11.24;100.00;100215.53;5005097;28;1208;-75
2023/10/31 11:41:39;;;;;;;;;;;;;;;11.19;100.00;100215.19;5004426;28;1175;-75
2023/10/31 11:44:04;;;;;;;;;;;;;;;11.14;100.00;100219.03;5020152;28;1077;-75
2023/10/31 11:46:29;;;;;;;;;;;;;;;11.15;100.00;100227.63;5021485;28;1216;-75
2023/10/31 11:48:59;;;;;;;;;;;;;;;11.15;100.00;100227.63;5022897;28;1098;-76
2023/10/31 11:51:25;;;;;;;;;;;;;;;11.15;100.00;100218.06;5009548;28;1181;-75
2023/10/31 11:53:50;;;;;;;;;;;;;;;11.15;100.00;100225.84;5025211;28;1070;-75
2023/10/31 11:56:16;;;;;;;;;;;;;;;11.15;100.00;100220.66;5026501;28;1977;-75
2023/10/31 11:58:41;;;;;;;;;;;;;;;11.15;100.00;100225.84;5024251;28;1213;-75
2023/10/31 12:01:07;;;;;;;;;;;;;;;11.20;100.00;100227.19;5025658;28;1273;-75
2023/10/31 12:03:37;;;;;;;;;;;;;;;11.21;100.00;100221.03;5007850;28;1199;-75
2023/10/31 12:06:03;;;;;;;;;;;;;;;11.24;100.00;100223.34;5026813;28;1054;-75
2023/10/31 12:08:29;;;;;;;;;;;;;;;11.30;100.00;100222.78;5024307;28;1176;-76
2023/10/31 12:11:02;;;;;;;;;;;;;;;11.37;100.00;100223.84;5020155;28;1146;-75
2023/10/31 12:13:28;;;;;;;;;;;;;;;11.41;100.00;100222.56;5004395;28;1314;-75
2023/10/31 12:15:53;;;;;;;;;;;;;;;11.43;100.00;100225.84;5025243;28;1898;-75
2023/10/31 12:18:18;;;;;;;;;;;;;;;11.47;100.00;100229.78;5019824;28;1071;-75
2023/10/31 12:20:48;;;;;;;;;;;;;;;11.49;100.00;100227.88;5025748;28;1116;-75
2023/10/31 12:23:14;;;;;;;;;;;;;;;11.50;100.00;100229.50;5021034;28;1129;-75
2023/10/31 12:25:48;;;;;;;;;;;;;;;11.49;100.00;100238.25;5022666;28;1087;-75
2023/10/31 12:28:20;;;;;;;;;;;;;;;11.51;100.00;100238.91;5023882;28;1033;-75
2023/10/31 12:30:46;;;;;;;;;;;;;;;11.51;100.00;100236.31;5022211;28;1118;-75
2023/10/31 12:33:12;;;;;;;;;;;;;;;11.51;100.00;100241.50;5023290;28;1078;-75
2023/10/31 12:35:37;;;;;;;;;;;;;;;11.51;100.00;100240.69;5018331;28;1894;-75
2023/10/31 12:38:02;;;;;;;;;;;;;;;11.44;100.00;100241.28;5022179;28;1000;-74
2023/10/31 12:40:28;;;;;;;;;;;;;;;11.42;100.00;100242.41;5023993;28;1152;-75
2023/10/31 12:42:53;;;;;;;;;;;;;;;11.41;100.00;100236.38;5023114;28;1172;-75